sensor_id;sensor_type;location;lat;lon;timestamp;temperature;humidity
12885;DHT22;6510;51.362;7.370;2023-08-01T00:02:19;15.80;99.90
12885;DHT22;6510;51.362;7.370;2023-08-01T00:04:44;15.80;99.90
12885;DHT22;6510;51.362;7.370;2023-08-01T00:07:10;15.80;99.90
12885;DHT22;6510;51.362;7.370;2023-08-01T00:09:35;15.80;99.90
12885;DHT22;6510;51.362;7.370;2023-08-01T00:12:01;15.90;99.90
12885;DHT22;6510;51.362;7.370;2023-08-01T00:14:27;15.80;99.90
12885;DHT22;6510;51.362;7.370;2023-08-01T00:16:52;15.90;99.90
12885;DHT22;6510;51.362;7.370;2023-08-01T00:19:18;15.90;99.90
12885;DHT22;6510;51.362;7.370;2023-08-01T00:21:44;15.90;99.90
12885;DHT22;6510;51.362;7.370;2023-08-01T00:24:10;15.90;99.90
12885;DHT22;6510;51.362;7.370;2023-08-01T00:26:35;15.90;99.90
12885;DHT22;6510;51.362;7.370;2023-08-01T00:29:01;15.90;99.90
12885;DHT22;6510;51.362;7.370;2023-08-01T00:31:26;15.90;99.90
12885;DHT22;6510;51.362;7.370;2023-08-01T00:33:52;15.90;99.90
12885;DHT22;6510;51.362;7.370;2023-08-01T00:36:18;15.90;99.90
12885;DHT22;6510;51.362;7.370;2023-08-01T00:38:43;15.90;99.90
12885;DHT22;6510;51.362;7.370;2023-08-01T00:41:10;15.90;99.90
12885;DHT22;6510;51.362;7.370;2023-08-01T00:43:35;16.00;99.90
12885;DHT22;6510;51.362;7.370;2023-08-01T00:46:03;15.90;99.90
12885;DHT22;6510;51.362;7.370;2023-08-01T00:48:30;16.00;99.90
12885;DHT22;6510;51.362;7.370;2023-08-01T00:51:00;16.00;99.90
12885;DHT22;6510;51.362;7.370;2023-08-01T00:53:26;16.00;99.90
12885;DHT22;6510;51.362;7.370;2023-08-01T00:55:52;16.00;99.90
12885;DHT22;6510;51.362;7.370;2023-08-01T00:58:19;16.00;99.90
12885;DHT22;6510;51.362;7.370;2023-08-01T01:00:46;16.00;99.90
12885;DHT22;6510;51.362;7.370;2023-08-01T01:03:12;16.00;99.90
12885;DHT22;6510;51.362;7.370;2023-08-01T01:05:40;16.00;99.90
12885;DHT22;6510;51.362;7.370;2023-08-01T01:08:07;16.00;99.90
12885;DHT22;6510;51.362;7.370;2023-08-01T01:10:33;16.00;99.90
12885;DHT22;6510;51.362;7.370;2023-08-01T01:12:59;16.00;99.90
12885;DHT22;6510;51.362;7.370;2023-08-01T01:15:25;16.00;99.90
12885;DHT22;6510;51.362;7.370;2023-08-01T01:17:52;16.00;99.90
12885;DHT22;6510;51.362;7.370;2023-08-01T01:20:23;16.00;99.90
12885;DHT22;6510;51.362;7.370;2023-08-01T01:22:51;16.00;99.90
12885;DHT22;6510;51.362;7.370;2023-08-01T01:25:20;16.00;99.90
12885;DHT22;6510;51.362;7.370;2023-08-01T01:27:49;16.00;99.90
12885;DHT22;6510;51.362;7.370;2023-08-01T01:30:15;16.00;99.90
12885;DHT22;6510;51.362;7.370;2023-08-01T01:32:41;15.90;99.90
12885;DHT22;6510;51.362;7.370;2023-08-01T01:35:08;15.90;99.90
12885;DHT22;6510;51.362;7.370;2023-08-01T01:37:34;15.80;99.90
12885;DHT22;6510;51.362;7.370;2023-08-01T01:39:59;15.80;99.90
12885;DHT22;6510;51.362;7.370;2023-08-01T01:42:25;15.80;99.90
12885;DHT22;6510;51.362;7.370;2023-08-01T01:44:51;15.80;99.90
12885;DHT22;6510;51.362;7.370;2023-08-01T01:47:17;15.80;99.90
12885;DHT22;6510;51.362;7.370;2023-08-01T01:49:42;15.80;99.90
12885;DHT22;6510;51.362;7.370;2023-08-01T01:52:08;15.80;99.90
12885;DHT22;6510;51.362;7.370;2023-08-01T01:54:34;15.70;99.90
12885;DHT22;6510;51.362;7.370;2023-08-01T01:56:59;15.70;99.90
12885;DHT22;6510;51.362;7.370;2023-08-01T01:59:25;15.70;99.90
12885;DHT22;6510;51.362;7.370;2023-08-01T02:01:50;15.80;99.90
12885;DHT22;6510;51.362;7.370;2023-08-01T02:04:16;15.70;99.90
12885;DHT22;6510;51.362;7.370;2023-08-01T02:06:41;15.70;99.90
12885;DHT22;6510;51.362;7.370;2023-08-01T02:09:07;15.70;99.90
12885;DHT22;6510;51.362;7.370;2023-08-01T02:11:33;15.70;99.90
12885;DHT22;6510;51.362;7.370;2023-08-01T02:13:58;15.70;99.90
12885;DHT22;6510;51.362;7.370;2023-08-01T02:16:24;15.70;99.90
12885;DHT22;6510;51.362;7.370;2023-08-01T02:18:49;15.70;99.90
12885;DHT22;6510;51.362;7.370;2023-08-01T02:21:15;15.70;99.90
12885;DHT22;6510;51.362;7.370;2023-08-01T02:23:41;15.70;99.90
12885;DHT22;6510;51.362;7.370;2023-08-01T02:26:06;15.70;99.90
12885;DHT22;6510;51.362;7.370;2023-08-01T02:28:33;15.70;99.90
12885;DHT22;6510;51.362;7.370;2023-08-01T02:30:59;15.60;99.90
12885;DHT22;6510;51.362;7.370;2023-08-01T02:33:24;15.60;99.90
12885;DHT22;6510;51.362;7.370;2023-08-01T02:35:50;15.60;99.90
12885;DHT22;6510;51.362;7.370;2023-08-01T02:38:15;15.60;99.90
12885;DHT22;6510;51.362;7.370;2023-08-01T02:40:43;15.60;99.90
12885;DHT22;6510;51.362;7.370;2023-08-01T02:43:09;15.60;99.90
12885;DHT22;6510;51.362;7.370;2023-08-01T02:45:34;15.60;99.90
12885;DHT22;6510;51.362;7.370;2023-08-01T02:48:00;15.60;99.90
12885;DHT22;6510;51.362;7.370;2023-08-01T02:50:26;15.60;99.90
12885;DHT22;6510;51.362;7.370;2023-08-01T02:52:51;15.60;99.90
12885;DHT22;6510;51.362;7.370;2023-08-01T02:55:17;15.60;99.90
12885;DHT22;6510;51.362;7.370;2023-08-01T02:57:43;15.40;99.90
12885;DHT22;6510;51.362;7.370;2023-08-01T03:00:09;15.20;99.90
12885;DHT22;6510;51.362;7.370;2023-08-01T03:02:38;15.00;99.90
12885;DHT22;6510;51.362;7.370;2023-08-01T03:05:09;14.90;99.90
12885;DHT22;6510;51.362;7.370;2023-08-01T03:07:35;14.70;99.90
12885;DHT22;6510;51.362;7.370;2023-08-01T03:10:01;14.60;99.90
12885;DHT22;6510;51.362;7.370;2023-08-01T03:12:27;14.60;99.90
12885;DHT22;6510;51.362;7.370;2023-08-01T03:14:52;14.60;99.90
12885;DHT22;6510;51.362;7.370;2023-08-01T03:17:18;14.60;99.90
12885;DHT22;6510;51.362;7.370;2023-08-01T03:19:43;14.50;99.90
12885;DHT22;6510;51.362;7.370;2023-08-01T03:22:12;14.50;99.90
12885;DHT22;6510;51.362;7.370;2023-08-01T03:24:37;14.50;99.90
12885;DHT22;6510;51.362;7.370;2023-08-01T03:27:03;14.60;99.90
12885;DHT22;6510;51.362;7.370;2023-08-01T03:29:29;14.60;99.90
12885;DHT22;6510;51.362;7.370;2023-08-01T03:31:55;14.60;99.90
12885;DHT22;6510;51.362;7.370;2023-08-01T03:34:20;14.60;99.90
12885;DHT22;6510;51.362;7.370;2023-08-01T03:36:46;14.60;99.90
12885;DHT22;6510;51.362;7.370;2023-08-01T03:39:11;14.60;99.90
12885;DHT22;6510;51.362;7.370;2023-08-01T03:41:37;14.60;99.90
12885;DHT22;6510;51.362;7.370;2023-08-01T03:44:03;14.60;99.90
12885;DHT22;6510;51.362;7.370;2023-08-01T03:46:29;14.60;99.90
12885;DHT22;6510;51.362;7.370;2023-08-01T03:48:55;14.60;99.90
12885;DHT22;6510;51.362;7.370;2023-08-01T03:51:21;14.60;99.90
12885;DHT22;6510;51.362;7.370;2023-08-01T03:53:47;14.50;99.90
12885;DHT22;6510;51.362;7.370;2023-08-01T03:56:13;14.50;99.90
12885;DHT22;6510;51.362;7.370;2023-08-01T03:58:39;14.50;99.90
12885;DHT22;6510;51.362;7.370;2023-08-01T04:01:04;14.50;99.90
12885;DHT22;6510;51.362;7.370;2023-08-01T04:03:32;14.50;99.90
12885;DHT22;6510;51.362;7.370;2023-08-01T04:05:57;14.50;99.90
12885;DHT22;6510;51.362;7.370;2023-08-01T04:08:23;14.40;99.90
12885;DHT22;6510;51.362;7.370;2023-08-01T04:10:49;14.40;99.90
12885;DHT22;6510;51.362;7.370;2023-08-01T04:13:15;14.40;99.90
12885;DHT22;6510;51.362;7.370;2023-08-01T04:15:41;14.40;99.90
12885;DHT22;6510;51.362;7.370;2023-08-01T04:18:06;14.40;99.90
12885;DHT22;6510;51.362;7.370;2023-08-01T04:20:32;14.30;99.90
12885;DHT22;6510;51.362;7.370;2023-08-01T04:22:58;14.30;99.90
12885;DHT22;6510;51.362;7.370;2023-08-01T04:25:24;14.30;99.90
12885;DHT22;6510;51.362;7.370;2023-08-01T04:27:52;14.30;99.90
12885;DHT22;6510;51.362;7.370;2023-08-01T04:30:18;14.30;99.90
12885;DHT22;6510;51.362;7.370;2023-08-01T04:32:43;14.30;99.90
12885;DHT22;6510;51.362;7.370;2023-08-01T04:35:09;14.30;99.90
12885;DHT22;6510;51.362;7.370;2023-08-01T04:37:35;14.20;99.90
12885;DHT22;6510;51.362;7.370;2023-08-01T04:40:00;14.20;99.90
12885;DHT22;6510;51.362;7.370;2023-08-01T04:42:26;14.20;99.90
12885;DHT22;6510;51.362;7.370;2023-08-01T04:44:52;14.10;99.90
12885;DHT22;6510;51.362;7.370;2023-08-01T04:47:19;14.10;99.90
12885;DHT22;6510;51.362;7.370;2023-08-01T04:49:44;14.00;99.90
12885;DHT22;6510;51.362;7.370;2023-08-01T04:52:10;14.00;99.90
12885;DHT22;6510;51.362;7.370;2023-08-01T04:54:36;14.10;99.90
12885;DHT22;6510;51.362;7.370;2023-08-01T04:57:01;14.00;99.90
12885;DHT22;6510;51.362;7.370;2023-08-01T04:59:27;14.00;99.90
12885;DHT22;6510;51.362;7.370;2023-08-01T05:01:52;14.00;99.90
12885;DHT22;6510;51.362;7.370;2023-08-01T05:04:18;14.10;99.90
12885;DHT22;6510;51.362;7.370;2023-08-01T05:06:44;14.10;99.90
12885;DHT22;6510;51.362;7.370;2023-08-01T05:09:09;14.10;99.90
12885;DHT22;6510;51.362;7.370;2023-08-01T05:11:35;14.10;99.90
12885;DHT22;6510;51.362;7.370;2023-08-01T05:14:00;14.10;99.90
12885;DHT22;6510;51.362;7.370;2023-08-01T05:16:26;14.10;99.90
12885;DHT22;6510;51.362;7.370;2023-08-01T05:18:52;14.10;99.90
12885;DHT22;6510;51.362;7.370;2023-08-01T05:21:17;14.10;99.90
12885;DHT22;6510;51.362;7.370;2023-08-01T05:23:43;14.10;99.90
12885;DHT22;6510;51.362;7.370;2023-08-01T05:26:08;14.10;99.90
12885;DHT22;6510;51.362;7.370;2023-08-01T05:28:34;14.10;99.90
12885;DHT22;6510;51.362;7.370;2023-08-01T05:30:59;14.10;99.90
12885;DHT22;6510;51.362;7.370;2023-08-01T05:33:25;14.10;99.90
12885;DHT22;6510;51.362;7.370;2023-08-01T05:35:51;14.10;99.90
12885;DHT22;6510;51.362;7.370;2023-08-01T05:38:16;14.20;99.90
12885;DHT22;6510;51.362;7.370;2023-08-01T05:40:42;14.20;99.90
12885;DHT22;6510;51.362;7.370;2023-08-01T05:43:07;14.20;99.90
12885;DHT22;6510;51.362;7.370;2023-08-01T05:45:34;14.30;99.90
12885;DHT22;6510;51.362;7.370;2023-08-01T05:48:01;14.30;99.90
12885;DHT22;6510;51.362;7.370;2023-08-01T05:50:27;14.30;99.90
12885;DHT22;6510;51.362;7.370;2023-08-01T05:52:52;14.30;99.90
12885;DHT22;6510;51.362;7.370;2023-08-01T05:55:18;14.20;99.90
12885;DHT22;6510;51.362;7.370;2023-08-01T05:57:44;14.20;99.90
12885;DHT22;6510;51.362;7.370;2023-08-01T06:00:10;14.20;99.90
12885;DHT22;6510;51.362;7.370;2023-08-01T06:02:36;14.20;99.90
12885;DHT22;6510;51.362;7.370;2023-08-01T06:05:01;14.30;99.90
12885;DHT22;6510;51.362;7.370;2023-08-01T06:07:27;14.30;99.90
12885;DHT22;6510;51.362;7.370;2023-08-01T06:09:52;14.30;99.90
12885;DHT22;6510;51.362;7.370;2023-08-01T06:12:18;14.30;99.90
12885;DHT22;6510;51.362;7.370;2023-08-01T06:14:44;14.40;99.90
12885;DHT22;6510;51.362;7.370;2023-08-01T06:17:10;14.40;99.90
12885;DHT22;6510;51.362;7.370;2023-08-01T06:19:35;14.40;99.90
12885;DHT22;6510;51.362;7.370;2023-08-01T06:22:01;14.50;99.90
12885;DHT22;6510;51.362;7.370;2023-08-01T06:24:27;14.40;99.90
12885;DHT22;6510;51.362;7.370;2023-08-01T06:26:52;14.50;99.90
12885;DHT22;6510;51.362;7.370;2023-08-01T06:29:18;14.50;99.90
12885;DHT22;6510;51.362;7.370;2023-08-01T06:31:44;14.60;99.90
12885;DHT22;6510;51.362;7.370;2023-08-01T06:34:09;14.70;99.90
12885;DHT22;6510;51.362;7.370;2023-08-01T06:36:35;14.70;99.90
12885;DHT22;6510;51.362;7.370;2023-08-01T06:39:00;14.70;99.90
12885;DHT22;6510;51.362;7.370;2023-08-01T06:41:26;14.70;99.90
12885;DHT22;6510;51.362;7.370;2023-08-01T06:43:52;14.70;99.90
12885;DHT22;6510;51.362;7.370;2023-08-01T06:46:20;14.70;99.90
12885;DHT22;6510;51.362;7.370;2023-08-01T06:48:46;14.60;99.90
12885;DHT22;6510;51.362;7.370;2023-08-01T06:51:11;14.70;99.90
12885;DHT22;6510;51.362;7.370;2023-08-01T06:53:37;14.80;99.90
12885;DHT22;6510;51.362;7.370;2023-08-01T06:56:02;15.10;99.90
12885;DHT22;6510;51.362;7.370;2023-08-01T06:58:28;15.50;99.90
12885;DHT22;6510;51.362;7.370;2023-08-01T07:00:54;15.80;99.90
12885;DHT22;6510;51.362;7.370;2023-08-01T07:03:19;15.70;99.90
12885;DHT22;6510;51.362;7.370;2023-08-01T07:05:45;15.60;99.90
12885;DHT22;6510;51.362;7.370;2023-08-01T07:08:10;15.50;99.90
12885;DHT22;6510;51.362;7.370;2023-08-01T07:10:36;15.30;99.90
12885;DHT22;6510;51.362;7.370;2023-08-01T07:13:02;15.40;99.90
12885;DHT22;6510;51.362;7.370;2023-08-01T07:15:32;15.50;99.90
12885;DHT22;6510;51.362;7.370;2023-08-01T07:17:58;15.50;99.90
12885;DHT22;6510;51.362;7.370;2023-08-01T07:20:26;15.40;99.90
12885;DHT22;6510;51.362;7.370;2023-08-01T07:22:52;15.60;99.90
12885;DHT22;6510;51.362;7.370;2023-08-01T07:25:18;15.70;99.90
12885;DHT22;6510;51.362;7.370;2023-08-01T07:27:45;15.90;99.90
12885;DHT22;6510;51.362;7.370;2023-08-01T07:30:11;15.80;99.90
12885;DHT22;6510;51.362;7.370;2023-08-01T07:32:36;16.30;99.90
12885;DHT22;6510;51.362;7.370;2023-08-01T07:35:06;16.70;99.90
12885;DHT22;6510;51.362;7.370;2023-08-01T07:37:35;17.20;99.90
12885;DHT22;6510;51.362;7.370;2023-08-01T07:40:04;17.40;99.90
12885;DHT22;6510;51.362;7.370;2023-08-01T07:42:30;17.40;99.90
12885;DHT22;6510;51.362;7.370;2023-08-01T07:44:56;17.00;99.90
12885;DHT22;6510;51.362;7.370;2023-08-01T07:47:22;16.50;99.90
12885;DHT22;6510;51.362;7.370;2023-08-01T07:49:49;16.50;99.90
12885;DHT22;6510;51.362;7.370;2023-08-01T07:52:15;16.60;99.90
12885;DHT22;6510;51.362;7.370;2023-08-01T07:54:40;16.60;99.90
12885;DHT22;6510;51.362;7.370;2023-08-01T07:57:06;17.30;99.90
12885;DHT22;6510;51.362;7.370;2023-08-01T07:59:32;18.20;99.90
12885;DHT22;6510;51.362;7.370;2023-08-01T08:01:57;18.30;99.90
12885;DHT22;6510;51.362;7.370;2023-08-01T08:04:23;18.90;99.90
12885;DHT22;6510;51.362;7.370;2023-08-01T08:06:48;19.60;99.90
12885;DHT22;6510;51.362;7.370;2023-08-01T08:09:14;20.40;99.90
12885;DHT22;6510;51.362;7.370;2023-08-01T08:11:40;19.90;99.90
12885;DHT22;6510;51.362;7.370;2023-08-01T08:14:05;19.50;99.90
12885;DHT22;6510;51.362;7.370;2023-08-01T08:16:31;19.40;99.90
12885;DHT22;6510;51.362;7.370;2023-08-01T08:18:56;20.40;99.90
12885;DHT22;6510;51.362;7.370;2023-08-01T08:21:22;20.50;99.90
12885;DHT22;6510;51.362;7.370;2023-08-01T08:23:48;19.70;99.90
12885;DHT22;6510;51.362;7.370;2023-08-01T08:26:13;19.00;99.90
12885;DHT22;6510;51.362;7.370;2023-08-01T08:28:39;19.00;99.90
12885;DHT22;6510;51.362;7.370;2023-08-01T08:31:07;18.70;99.90
12885;DHT22;6510;51.362;7.370;2023-08-01T08:33:32;18.70;99.90
12885;DHT22;6510;51.362;7.370;2023-08-01T08:35:58;18.70;99.90
12885;DHT22;6510;51.362;7.370;2023-08-01T08:38:24;19.30;99.90
12885;DHT22;6510;51.362;7.370;2023-08-01T08:41:01;19.60;99.90
12885;DHT22;6510;51.362;7.370;2023-08-01T08:43:31;20.40;99.90
12885;DHT22;6510;51.362;7.370;2023-08-01T08:45:57;20.40;99.90
12885;DHT22;6510;51.362;7.370;2023-08-01T08:48:26;19.70;99.90
12885;DHT22;6510;51.362;7.370;2023-08-01T08:50:52;19.80;99.90
12885;DHT22;6510;51.362;7.370;2023-08-01T08:53:19;19.50;99.90
12885;DHT22;6510;51.362;7.370;2023-08-01T08:55:45;19.60;99.90
12885;DHT22;6510;51.362;7.370;2023-08-01T08:58:11;20.50;99.90
12885;DHT22;6510;51.362;7.370;2023-08-01T09:00:36;20.90;99.90
12885;DHT22;6510;51.362;7.370;2023-08-01T09:03:04;20.50;99.90
12885;DHT22;6510;51.362;7.370;2023-08-01T09:05:57;20.90;99.90
12885;DHT22;6510;51.362;7.370;2023-08-01T09:08:21;21.60;99.90
12885;DHT22;6510;51.362;7.370;2023-08-01T09:10:47;21.00;99.90
12885;DHT22;6510;51.362;7.370;2023-08-01T09:13:13;19.70;99.90
12885;DHT22;6510;51.362;7.370;2023-08-01T09:15:41;18.60;99.90
12885;DHT22;6510;51.362;7.370;2023-08-01T09:18:08;18.40;99.90
12885;DHT22;6510;51.362;7.370;2023-08-01T09:21:00;19.50;99.90
12885;DHT22;6510;51.362;7.370;2023-08-01T09:23:29;20.80;99.90
12885;DHT22;6510;51.362;7.370;2023-08-01T09:25:56;21.60;99.90
12885;DHT22;6510;51.362;7.370;2023-08-01T09:28:24;22.30;99.90
12885;DHT22;6510;51.362;7.370;2023-08-01T09:30:55;22.10;99.90
12885;DHT22;6510;51.362;7.370;2023-08-01T09:33:21;22.30;99.90
12885;DHT22;6510;51.362;7.370;2023-08-01T09:35:50;23.30;99.90
12885;DHT22;6510;51.362;7.370;2023-08-01T09:38:16;23.70;99.90
12885;DHT22;6510;51.362;7.370;2023-08-01T09:40:43;23.20;99.90
12885;DHT22;6510;51.362;7.370;2023-08-01T09:43:13;23.50;99.90
12885;DHT22;6510;51.362;7.370;2023-08-01T09:45:59;22.70;99.90
12885;DHT22;6510;51.362;7.370;2023-08-01T09:48:29;23.30;99.90
12885;DHT22;6510;51.362;7.370;2023-08-01T09:51:09;24.00;99.90
12885;DHT22;6510;51.362;7.370;2023-08-01T09:53:36;23.60;99.90
12885;DHT22;6510;51.362;7.370;2023-08-01T09:56:02;22.60;99.90
12885;DHT22;6510;51.362;7.370;2023-08-01T09:58:33;22.90;99.90
12885;DHT22;6510;51.362;7.370;2023-08-01T10:01:02;23.60;99.90
12885;DHT22;6510;51.362;7.370;2023-08-01T10:03:28;23.90;99.90
12885;DHT22;6510;51.362;7.370;2023-08-01T10:05:55;23.50;99.90
12885;DHT22;6510;51.362;7.370;2023-08-01T10:08:22;23.50;99.90
12885;DHT22;6510;51.362;7.370;2023-08-01T10:10:48;24.80;99.90
12885;DHT22;6510;51.362;7.370;2023-08-01T10:13:15;26.00;99.90
12885;DHT22;6510;51.362;7.370;2023-08-01T10:15:41;24.60;99.90
12885;DHT22;6510;51.362;7.370;2023-08-01T10:18:08;22.80;99.90
12885;DHT22;6510;51.362;7.370;2023-08-01T10:20:36;21.00;99.90
12885;DHT22;6510;51.362;7.370;2023-08-01T10:23:03;19.70;99.90
12885;DHT22;6510;51.362;7.370;2023-08-01T10:25:29;18.10;99.90
12885;DHT22;6510;51.362;7.370;2023-08-01T10:28:02;17.30;99.90
12885;DHT22;6510;51.362;7.370;2023-08-01T10:30:29;17.30;99.90
12885;DHT22;6510;51.362;7.370;2023-08-01T10:32:56;18.20;99.90
12885;DHT22;6510;51.362;7.370;2023-08-01T10:35:52;20.30;99.90
12885;DHT22;6510;51.362;7.370;2023-08-01T10:38:17;22.10;99.90
12885;DHT22;6510;51.362;7.370;2023-08-01T10:40:43;22.50;99.90
12885;DHT22;6510;51.362;7.370;2023-08-01T10:43:22;21.50;99.90
12885;DHT22;6510;51.362;7.370;2023-08-01T10:45:59;21.80;99.90
12885;DHT22;6510;51.362;7.370;2023-08-01T10:48:25;23.80;99.90
12885;DHT22;6510;51.362;7.370;2023-08-01T10:50:55;23.20;99.90
12885;DHT22;6510;51.362;7.370;2023-08-01T10:53:22;22.60;99.90
12885;DHT22;6510;51.362;7.370;2023-08-01T10:55:48;22.70;99.90
12885;DHT22;6510;51.362;7.370;2023-08-01T10:58:14;23.20;99.90
12885;DHT22;6510;51.362;7.370;2023-08-01T11:00:42;24.60;99.90
12885;DHT22;6510;51.362;7.370;2023-08-01T11:03:08;25.00;99.90
12885;DHT22;6510;51.362;7.370;2023-08-01T11:05:33;25.20;99.90
12885;DHT22;6510;51.362;7.370;2023-08-01T11:08:01;25.20;99.90
12885;DHT22;6510;51.362;7.370;2023-08-01T11:10:31;25.60;99.90
12885;DHT22;6510;51.362;7.370;2023-08-01T11:12:58;24.90;99.90
12885;DHT22;6510;51.362;7.370;2023-08-01T11:15:24;23.10;99.90
12885;DHT22;6510;51.362;7.370;2023-08-01T11:17:52;21.70;99.90
12885;DHT22;6510;51.362;7.370;2023-08-01T11:20:20;20.70;99.90
12885;DHT22;6510;51.362;7.370;2023-08-01T11:22:57;19.70;99.90
12885;DHT22;6510;51.362;7.370;2023-08-01T11:25:36;18.80;99.90
12885;DHT22;6510;51.362;7.370;2023-08-01T11:28:14;18.30;99.90
12885;DHT22;6510;51.362;7.370;2023-08-01T11:30:40;17.90;99.90
12885;DHT22;6510;51.362;7.370;2023-08-01T11:33:20;17.50;99.90
12885;DHT22;6510;51.362;7.370;2023-08-01T11:35:50;16.90;99.90
12885;DHT22;6510;51.362;7.370;2023-08-01T11:38:16;16.20;99.90
12885;DHT22;6510;51.362;7.370;2023-08-01T11:40:42;16.10;99.90
12885;DHT22;6510;51.362;7.370;2023-08-01T11:43:08;16.00;99.90
12885;DHT22;6510;51.362;7.370;2023-08-01T11:45:33;16.20;99.90
12885;DHT22;6510;51.362;7.370;2023-08-01T11:47:59;16.70;99.90
12885;DHT22;6510;51.362;7.370;2023-08-01T11:50:25;18.20;99.90
12885;DHT22;6510;51.362;7.370;2023-08-01T11:52:51;19.50;99.90
12885;DHT22;6510;51.362;7.370;2023-08-01T11:55:21;20.70;99.90
12885;DHT22;6510;51.362;7.370;2023-08-01T11:57:57;20.10;99.90
12885;DHT22;6510;51.362;7.370;2023-08-01T12:00:25;19.50;99.90
12885;DHT22;6510;51.362;7.370;2023-08-01T12:02:51;18.90;99.90
12885;DHT22;6510;51.362;7.370;2023-08-01T12:05:23;17.90;99.90
12885;DHT22;6510;51.362;7.370;2023-08-01T12:07:49;17.10;99.90
12885;DHT22;6510;51.362;7.370;2023-08-01T12:10:15;16.60;99.90
12885;DHT22;6510;51.362;7.370;2023-08-01T12:12:45;16.30;99.90
12885;DHT22;6510;51.362;7.370;2023-08-01T12:15:13;17.10;99.90
12885;DHT22;6510;51.362;7.370;2023-08-01T12:17:38;17.80;99.90
12885;DHT22;6510;51.362;7.370;2023-08-01T12:20:04;17.80;99.90
12885;DHT22;6510;51.362;7.370;2023-08-01T12:22:30;17.30;99.90
12885;DHT22;6510;51.362;7.370;2023-08-01T12:24:56;17.20;99.90
12885;DHT22;6510;51.362;7.370;2023-08-01T12:27:21;17.10;99.90
12885;DHT22;6510;51.362;7.370;2023-08-01T12:29:47;16.70;99.90
12885;DHT22;6510;51.362;7.370;2023-08-01T12:32:13;16.50;99.90
12885;DHT22;6510;51.362;7.370;2023-08-01T12:34:39;16.40;99.90
12885;DHT22;6510;51.362;7.370;2023-08-01T12:37:05;16.30;99.90
12885;DHT22;6510;51.362;7.370;2023-08-01T12:39:31;16.40;99.90
12885;DHT22;6510;51.362;7.370;2023-08-01T12:41:56;16.60;99.90
12885;DHT22;6510;51.362;7.370;2023-08-01T12:44:22;16.80;99.90
12885;DHT22;6510;51.362;7.370;2023-08-01T12:46:48;16.80;99.90
12885;DHT22;6510;51.362;7.370;2023-08-01T12:49:13;17.10;99.90
12885;DHT22;6510;51.362;7.370;2023-08-01T12:51:39;17.10;99.90
12885;DHT22;6510;51.362;7.370;2023-08-01T12:54:05;17.40;99.90
12885;DHT22;6510;51.362;7.370;2023-08-01T12:56:31;17.80;99.90
12885;DHT22;6510;51.362;7.370;2023-08-01T12:58:57;18.10;99.90
12885;DHT22;6510;51.362;7.370;2023-08-01T13:01:23;18.40;99.90
12885;DHT22;6510;51.362;7.370;2023-08-01T13:03:48;18.20;99.90
12885;DHT22;6510;51.362;7.370;2023-08-01T13:06:14;17.90;99.90
12885;DHT22;6510;51.362;7.370;2023-08-01T13:08:39;17.70;99.90
12885;DHT22;6510;51.362;7.370;2023-08-01T13:11:15;17.50;99.90
12885;DHT22;6510;51.362;7.370;2023-08-01T13:13:41;17.80;99.90
12885;DHT22;6510;51.362;7.370;2023-08-01T13:16:07;18.20;99.90
12885;DHT22;6510;51.362;7.370;2023-08-01T13:18:33;18.40;99.90
12885;DHT22;6510;51.362;7.370;2023-08-01T13:20:59;20.60;99.90
12885;DHT22;6510;51.362;7.370;2023-08-01T13:23:26;23.10;99.90
12885;DHT22;6510;51.362;7.370;2023-08-01T13:25:51;24.60;99.90
12885;DHT22;6510;51.362;7.370;2023-08-01T13:28:17;25.20;99.90
12885;DHT22;6510;51.362;7.370;2023-08-01T13:30:42;25.40;99.90
12885;DHT22;6510;51.362;7.370;2023-08-01T13:33:08;25.70;99.90
12885;DHT22;6510;51.362;7.370;2023-08-01T13:35:34;26.10;99.90
12885;DHT22;6510;51.362;7.370;2023-08-01T13:37:59;26.60;99.90
12885;DHT22;6510;51.362;7.370;2023-08-01T13:40:25;26.80;99.90
12885;DHT22;6510;51.362;7.370;2023-08-01T13:42:51;26.90;99.90
12885;DHT22;6510;51.362;7.370;2023-08-01T13:45:17;25.80;99.90
12885;DHT22;6510;51.362;7.370;2023-08-01T13:47:42;24.10;99.90
12885;DHT22;6510;51.362;7.370;2023-08-01T13:50:08;25.60;99.90
12885;DHT22;6510;51.362;7.370;2023-08-01T13:52:36;26.00;99.90
12885;DHT22;6510;51.362;7.370;2023-08-01T13:55:02;25.70;99.90
12885;DHT22;6510;51.362;7.370;2023-08-01T13:57:30;23.80;99.90
12885;DHT22;6510;51.362;7.370;2023-08-01T13:59:56;22.50;99.90
12885;DHT22;6510;51.362;7.370;2023-08-01T14:02:21;21.50;99.90
12885;DHT22;6510;51.362;7.370;2023-08-01T14:04:51;20.70;99.90
12885;DHT22;6510;51.362;7.370;2023-08-01T14:07:17;19.70;99.90
12885;DHT22;6510;51.362;7.370;2023-08-01T14:09:43;18.70;99.90
12885;DHT22;6510;51.362;7.370;2023-08-01T14:12:08;17.60;99.90
12885;DHT22;6510;51.362;7.370;2023-08-01T14:14:34;16.80;99.90
12885;DHT22;6510;51.362;7.370;2023-08-01T14:16:59;16.40;99.90
12885;DHT22;6510;51.362;7.370;2023-08-01T14:19:25;16.20;99.90
12885;DHT22;6510;51.362;7.370;2023-08-01T14:21:55;15.90;99.90
12885;DHT22;6510;51.362;7.370;2023-08-01T14:24:21;15.70;99.90
12885;DHT22;6510;51.362;7.370;2023-08-01T14:26:47;16.60;99.90
12885;DHT22;6510;51.362;7.370;2023-08-01T14:29:13;18.50;99.90
12885;DHT22;6510;51.362;7.370;2023-08-01T14:31:38;19.30;99.90
12885;DHT22;6510;51.362;7.370;2023-08-01T14:34:04;19.00;99.90
12885;DHT22;6510;51.362;7.370;2023-08-01T14:36:29;18.60;99.90
12885;DHT22;6510;51.362;7.370;2023-08-01T14:38:55;18.50;99.90
12885;DHT22;6510;51.362;7.370;2023-08-01T14:41:22;18.50;99.90
12885;DHT22;6510;51.362;7.370;2023-08-01T14:43:48;18.40;99.90
12885;DHT22;6510;51.362;7.370;2023-08-01T14:46:13;18.30;99.90
12885;DHT22;6510;51.362;7.370;2023-08-01T14:48:39;18.40;99.90
12885;DHT22;6510;51.362;7.370;2023-08-01T14:51:08;18.40;99.90
12885;DHT22;6510;51.362;7.370;2023-08-01T14:53:34;18.40;99.90
12885;DHT22;6510;51.362;7.370;2023-08-01T14:56:00;18.40;99.90
12885;DHT22;6510;51.362;7.370;2023-08-01T14:58:28;18.10;99.90
12885;DHT22;6510;51.362;7.370;2023-08-01T15:00:53;18.20;99.90
12885;DHT22;6510;51.362;7.370;2023-08-01T15:03:19;18.30;99.90
12885;DHT22;6510;51.362;7.370;2023-08-01T15:05:45;18.30;99.90
12885;DHT22;6510;51.362;7.370;2023-08-01T15:08:10;18.60;99.90
12885;DHT22;6510;51.362;7.370;2023-08-01T15:10:37;19.00;99.90
12885;DHT22;6510;51.362;7.370;2023-08-01T15:13:02;19.10;99.90
12885;DHT22;6510;51.362;7.370;2023-08-01T15:15:28;19.20;99.90
12885;DHT22;6510;51.362;7.370;2023-08-01T15:17:53;19.20;99.90
12885;DHT22;6510;51.362;7.370;2023-08-01T15:20:19;19.10;99.90
12885;DHT22;6510;51.362;7.370;2023-08-01T15:22:44;19.30;99.90
12885;DHT22;6510;51.362;7.370;2023-08-01T15:25:10;19.40;99.90
12885;DHT22;6510;51.362;7.370;2023-08-01T15:27:36;19.20;99.90
12885;DHT22;6510;51.362;7.370;2023-08-01T15:30:01;19.10;99.90
12885;DHT22;6510;51.362;7.370;2023-08-01T15:32:27;18.90;99.90
12885;DHT22;6510;51.362;7.370;2023-08-01T15:34:54;18.70;99.90
12885;DHT22;6510;51.362;7.370;2023-08-01T15:37:20;18.70;99.90
12885;DHT22;6510;51.362;7.370;2023-08-01T15:39:46;18.70;99.90
12885;DHT22;6510;51.362;7.370;2023-08-01T15:42:11;18.50;99.90